Terminal Aerodrome Forecast
Issued by NWS

Current Version | Previous Version | Graphics & Text | Print | Product List | Glossary On
Versions: 1 2 3 4 5 6 7 8 9 10 11 12 13 14 15 16 17 18 19 20
000
FTUS41 KILN 251126
TAFLUK
TAF
KLUK 251126Z 2512/2612 23009KT 5SM -SHRA BR FEW008 OVC015
     FM251500 29008KT P6SM VCSH OVC015
     FM252000 30010KT P6SM OVC025
     FM260000 28010KT P6SM OVC025
     FM260900 28008KT P6SM SCT025=

USA.gov is the U.S. government's official web portal to all federal, state and local government web resources and services.